sensor_id;sensor_type;location;lat;lon;timestamp;P1;durP1;ratioP1;P2;durP2;ratioP2
9140;SDS011;46330;50.822;7.126;2022-09-13T00:00:00;9.65;;;4.60;;
9140;SDS011;46330;50.822;7.126;2022-09-13T00:02:30;8.25;;;4.65;;
9140;SDS011;46330;50.822;7.126;2022-09-13T00:04:58;7.35;;;4.28;;
9140;SDS011;46330;50.822;7.126;2022-09-13T00:07:26;9.45;;;4.70;;
9140;SDS011;46330;50.822;7.126;2022-09-13T00:09:53;8.10;;;4.47;;
9140;SDS011;46330;50.822;7.126;2022-09-13T00:12:23;6.75;;;4.65;;
9140;SDS011;46330;50.822;7.126;2022-09-13T00:14:51;8.85;;;4.65;;
9140;SDS011;46330;50.822;7.126;2022-09-13T00:17:18;10.43;;;4.60;;
9140;SDS011;46330;50.822;7.126;2022-09-13T00:19:46;7.78;;;4.55;;
9140;SDS011;46330;50.822;7.126;2022-09-13T00:22:14;6.38;;;4.05;;
9140;SDS011;46330;50.822;7.126;2022-09-13T00:24:42;6.53;;;4.13;;
9140;SDS011;46330;50.822;7.126;2022-09-13T00:27:10;5.80;;;4.20;;
9140;SDS011;46330;50.822;7.126;2022-09-13T00:29:39;9.25;;;4.13;;
9140;SDS011;46330;50.822;7.126;2022-09-13T00:32:07;8.25;;;4.20;;
9140;SDS011;46330;50.822;7.126;2022-09-13T00:34:35;6.97;;;4.10;;
9140;SDS011;46330;50.822;7.126;2022-09-13T00:37:03;7.43;;;4.20;;
9140;SDS011;46330;50.822;7.126;2022-09-13T00:39:31;6.93;;;4.60;;
9140;SDS011;46330;50.822;7.126;2022-09-13T00:41:59;5.57;;;4.18;;
9140;SDS011;46330;50.822;7.126;2022-09-13T00:47:24;7.10;;;4.28;;
9140;SDS011;46330;50.822;7.126;2022-09-13T00:49:56;6.78;;;4.10;;
9140;SDS011;46330;50.822;7.126;2022-09-13T00:52:27;9.30;;;4.40;;
9140;SDS011;46330;50.822;7.126;2022-09-13T00:54:57;7.00;;;4.75;;
9140;SDS011;46330;50.822;7.126;2022-09-13T00:57:28;7.72;;;4.03;;
9140;SDS011;46330;50.822;7.126;2022-09-13T01:00:01;8.48;;;4.30;;
9140;SDS011;46330;50.822;7.126;2022-09-13T01:02:36;7.70;;;4.20;;
9140;SDS011;46330;50.822;7.126;2022-09-13T01:05:06;8.80;;;4.15;;
9140;SDS011;46330;50.822;7.126;2022-09-13T01:07:35;7.30;;;4.60;;
9140;SDS011;46330;50.822;7.126;2022-09-13T01:10:04;6.20;;;4.45;;
9140;SDS011;46330;50.822;7.126;2022-09-13T01:12:34;7.57;;;4.32;;
9140;SDS011;46330;50.822;7.126;2022-09-13T01:15:10;7.60;;;4.53;;
9140;SDS011;46330;50.822;7.126;2022-09-13T01:17:38;8.85;;;4.40;;
9140;SDS011;46330;50.822;7.126;2022-09-13T01:20:06;5.88;;;4.15;;
9140;SDS011;46330;50.822;7.126;2022-09-13T01:22:54;6.03;;;4.13;;
9140;SDS011;46330;50.822;7.126;2022-09-13T01:28:53;8.88;;;4.30;;
9140;SDS011;46330;50.822;7.126;2022-09-13T01:31:49;4.82;;;3.70;;
9140;SDS011;46330;50.822;7.126;2022-09-13T01:34:27;9.30;;;4.25;;
9140;SDS011;46330;50.822;7.126;2022-09-13T01:37:13;6.10;;;4.38;;
9140;SDS011;46330;50.822;7.126;2022-09-13T01:39:59;11.13;;;4.80;;
9140;SDS011;46330;50.822;7.126;2022-09-13T01:42:36;10.27;;;4.20;;
9140;SDS011;46330;50.822;7.126;2022-09-13T01:45:16;7.20;;;4.22;;
9140;SDS011;46330;50.822;7.126;2022-09-13T01:47:55;7.63;;;4.50;;
9140;SDS011;46330;50.822;7.126;2022-09-13T01:50:32;9.90;;;4.80;;
9140;SDS011;46330;50.822;7.126;2022-09-13T01:53:06;5.93;;;4.20;;
9140;SDS011;46330;50.822;7.126;2022-09-13T01:55:43;6.28;;;3.92;;
9140;SDS011;46330;50.822;7.126;2022-09-13T01:58:19;5.80;;;4.00;;
9140;SDS011;46330;50.822;7.126;2022-09-13T02:00:51;7.93;;;4.22;;
9140;SDS011;46330;50.822;7.126;2022-09-13T02:03:27;6.38;;;4.13;;
9140;SDS011;46330;50.822;7.126;2022-09-13T02:06:00;7.45;;;4.30;;
9140;SDS011;46330;50.822;7.126;2022-09-13T02:08:34;7.57;;;4.45;;
9140;SDS011;46330;50.822;7.126;2022-09-13T02:11:06;5.18;;;3.88;;
9140;SDS011;46330;50.822;7.126;2022-09-13T02:13:37;6.57;;;4.40;;
9140;SDS011;46330;50.822;7.126;2022-09-13T02:16:10;11.70;;;3.90;;
9140;SDS011;46330;50.822;7.126;2022-09-13T02:18:45;8.10;;;4.38;;
9140;SDS011;46330;50.822;7.126;2022-09-13T02:21:16;5.57;;;4.10;;
9140;SDS011;46330;50.822;7.126;2022-09-13T02:23:48;5.72;;;3.67;;
9140;SDS011;46330;50.822;7.126;2022-09-13T02:26:19;6.43;;;3.85;;
9140;SDS011;46330;50.822;7.126;2022-09-13T02:28:50;7.13;;;4.25;;
9140;SDS011;46330;50.822;7.126;2022-09-13T02:31:21;8.10;;;4.40;;
9140;SDS011;46330;50.822;7.126;2022-09-13T02:33:57;8.10;;;5.00;;
9140;SDS011;46330;50.822;7.126;2022-09-13T02:36:30;8.32;;;4.82;;
9140;SDS011;46330;50.822;7.126;2022-09-13T02:39:02;8.68;;;4.60;;
9140;SDS011;46330;50.822;7.126;2022-09-13T02:41:35;9.23;;;4.53;;
9140;SDS011;46330;50.822;7.126;2022-09-13T02:44:11;9.02;;;4.80;;
9140;SDS011;46330;50.822;7.126;2022-09-13T02:46:52;7.88;;;4.40;;
9140;SDS011;46330;50.822;7.126;2022-09-13T02:49:33;8.40;;;5.00;;
9140;SDS011;46330;50.822;7.126;2022-09-13T02:52:12;7.50;;;4.35;;
9140;SDS011;46330;50.822;7.126;2022-09-13T02:54:48;7.03;;;4.28;;
9140;SDS011;46330;50.822;7.126;2022-09-13T02:57:22;8.10;;;3.90;;
9140;SDS011;46330;50.822;7.126;2022-09-13T02:59:56;5.65;;;3.75;;
9140;SDS011;46330;50.822;7.126;2022-09-13T03:02:24;5.82;;;4.07;;
9140;SDS011;46330;50.822;7.126;2022-09-13T03:04:56;4.40;;;3.65;;
9140;SDS011;46330;50.822;7.126;2022-09-13T03:07:25;5.38;;;3.72;;
9140;SDS011;46330;50.822;7.126;2022-09-13T03:09:53;7.50;;;3.55;;
9140;SDS011;46330;50.822;7.126;2022-09-13T03:12:39;5.00;;;4.05;;
9140;SDS011;46330;50.822;7.126;2022-09-13T03:15:20;4.70;;;3.55;;
9140;SDS011;46330;50.822;7.126;2022-09-13T03:17:59;6.15;;;3.72;;
9140;SDS011;46330;50.822;7.126;2022-09-13T03:20:40;5.95;;;3.65;;
9140;SDS011;46330;50.822;7.126;2022-09-13T03:23:27;6.05;;;3.80;;
9140;SDS011;46330;50.822;7.126;2022-09-13T03:28:53;6.35;;;4.50;;
9140;SDS011;46330;50.822;7.126;2022-09-13T03:31:32;7.45;;;4.35;;
9140;SDS011;46330;50.822;7.126;2022-09-13T03:34:09;10.80;;;4.20;;
9140;SDS011;46330;50.822;7.126;2022-09-13T03:36:44;7.50;;;4.50;;
9140;SDS011;46330;50.822;7.126;2022-09-13T03:39:19;6.88;;;4.45;;
9140;SDS011;46330;50.822;7.126;2022-09-13T03:41:56;6.03;;;4.05;;
9140;SDS011;46330;50.822;7.126;2022-09-13T03:44:28;7.57;;;3.80;;
9140;SDS011;46330;50.822;7.126;2022-09-13T03:46:59;6.93;;;4.20;;
9140;SDS011;46330;50.822;7.126;2022-09-13T03:49:29;7.68;;;3.70;;
9140;SDS011;46330;50.822;7.126;2022-09-13T03:51:59;5.22;;;3.65;;
9140;SDS011;46330;50.822;7.126;2022-09-13T03:54:28;6.30;;;3.85;;
9140;SDS011;46330;50.822;7.126;2022-09-13T03:57:04;5.82;;;3.58;;
9140;SDS011;46330;50.822;7.126;2022-09-13T03:59:36;7.65;;;3.97;;
9140;SDS011;46330;50.822;7.126;2022-09-13T04:02:05;5.85;;;4.07;;
9140;SDS011;46330;50.822;7.126;2022-09-13T04:04:36;5.03;;;3.80;;
9140;SDS011;46330;50.822;7.126;2022-09-13T04:07:06;5.15;;;3.78;;
9140;SDS011;46330;50.822;7.126;2022-09-13T04:09:34;6.30;;;4.20;;
9140;SDS011;46330;50.822;7.126;2022-09-13T04:12:02;5.00;;;4.25;;
9140;SDS011;46330;50.822;7.126;2022-09-13T04:14:30;7.43;;;4.30;;
9140;SDS011;46330;50.822;7.126;2022-09-13T04:16:58;8.90;;;4.88;;
9140;SDS011;46330;50.822;7.126;2022-09-13T04:19:26;18.08;;;7.03;;
9140;SDS011;46330;50.822;7.126;2022-09-13T04:21:54;19.67;;;8.15;;
9140;SDS011;46330;50.822;7.126;2022-09-13T04:24:24;12.45;;;6.18;;
9140;SDS011;46330;50.822;7.126;2022-09-13T04:26:53;10.82;;;5.85;;
9140;SDS011;46330;50.822;7.126;2022-09-13T04:29:22;10.98;;;5.05;;
9140;SDS011;46330;50.822;7.126;2022-09-13T04:31:52;9.27;;;4.50;;
9140;SDS011;46330;50.822;7.126;2022-09-13T04:34:21;7.45;;;4.22;;
9140;SDS011;46330;50.822;7.126;2022-09-13T04:36:49;6.95;;;3.80;;
9140;SDS011;46330;50.822;7.126;2022-09-13T04:39:18;6.57;;;3.90;;
9140;SDS011;46330;50.822;7.126;2022-09-13T04:41:47;6.18;;;3.58;;
9140;SDS011;46330;50.822;7.126;2022-09-13T04:44:17;6.65;;;4.07;;
9140;SDS011;46330;50.822;7.126;2022-09-13T04:46:46;7.55;;;4.15;;
9140;SDS011;46330;50.822;7.126;2022-09-13T04:49:15;6.57;;;4.28;;
9140;SDS011;46330;50.822;7.126;2022-09-13T04:51:43;8.75;;;4.68;;
9140;SDS011;46330;50.822;7.126;2022-09-13T04:54:11;13.43;;;5.30;;
9140;SDS011;46330;50.822;7.126;2022-09-13T04:56:41;8.80;;;4.38;;
9140;SDS011;46330;50.822;7.126;2022-09-13T04:59:11;6.55;;;4.30;;
9140;SDS011;46330;50.822;7.126;2022-09-13T05:01:39;6.93;;;4.30;;
9140;SDS011;46330;50.822;7.126;2022-09-13T05:04:07;8.35;;;4.22;;
9140;SDS011;46330;50.822;7.126;2022-09-13T05:06:36;9.25;;;4.95;;
9140;SDS011;46330;50.822;7.126;2022-09-13T05:09:04;6.93;;;4.20;;
9140;SDS011;46330;50.822;7.126;2022-09-13T05:11:32;9.13;;;4.63;;
9140;SDS011;46330;50.822;7.126;2022-09-13T05:14:00;7.07;;;4.18;;
9140;SDS011;46330;50.822;7.126;2022-09-13T05:16:30;5.47;;;4.43;;
9140;SDS011;46330;50.822;7.126;2022-09-13T05:18:59;8.30;;;4.50;;
9140;SDS011;46330;50.822;7.126;2022-09-13T05:21:28;5.50;;;3.95;;
9140;SDS011;46330;50.822;7.126;2022-09-13T05:23:56;5.80;;;4.40;;
9140;SDS011;46330;50.822;7.126;2022-09-13T05:26:25;6.85;;;4.50;;
9140;SDS011;46330;50.822;7.126;2022-09-13T05:28:56;9.07;;;4.82;;
9140;SDS011;46330;50.822;7.126;2022-09-13T05:31:25;7.35;;;4.50;;
9140;SDS011;46330;50.822;7.126;2022-09-13T05:33:57;9.40;;;4.90;;
9140;SDS011;46330;50.822;7.126;2022-09-13T05:36:27;7.90;;;4.85;;
9140;SDS011;46330;50.822;7.126;2022-09-13T05:38:55;7.10;;;4.70;;
9140;SDS011;46330;50.822;7.126;2022-09-13T05:41:43;9.13;;;4.85;;
9140;SDS011;46330;50.822;7.126;2022-09-13T05:44:11;7.70;;;4.88;;
9140;SDS011;46330;50.822;7.126;2022-09-13T05:46:39;6.30;;;4.50;;
9140;SDS011;46330;50.822;7.126;2022-09-13T05:49:10;7.70;;;4.47;;
9140;SDS011;46330;50.822;7.126;2022-09-13T05:51:39;6.20;;;4.47;;
9140;SDS011;46330;50.822;7.126;2022-09-13T05:54:07;8.80;;;4.25;;
9140;SDS011;46330;50.822;7.126;2022-09-13T05:56:37;8.55;;;4.57;;
9140;SDS011;46330;50.822;7.126;2022-09-13T05:59:05;10.10;;;4.68;;
9140;SDS011;46330;50.822;7.126;2022-09-13T06:01:34;10.15;;;4.70;;
9140;SDS011;46330;50.822;7.126;2022-09-13T06:04:02;7.63;;;4.47;;
9140;SDS011;46330;50.822;7.126;2022-09-13T06:06:31;7.38;;;4.20;;
9140;SDS011;46330;50.822;7.126;2022-09-13T06:08:59;7.53;;;4.03;;
9140;SDS011;46330;50.822;7.126;2022-09-13T06:11:26;5.85;;;4.20;;
9140;SDS011;46330;50.822;7.126;2022-09-13T06:13:54;5.90;;;3.95;;
9140;SDS011;46330;50.822;7.126;2022-09-13T06:16:22;6.75;;;3.67;;
9140;SDS011;46330;50.822;7.126;2022-09-13T06:18:50;5.63;;;3.50;;
9140;SDS011;46330;50.822;7.126;2022-09-13T06:21:18;6.40;;;3.78;;
9140;SDS011;46330;50.822;7.126;2022-09-13T06:23:53;5.72;;;4.00;;
9140;SDS011;46330;50.822;7.126;2022-09-13T06:26:22;5.70;;;3.90;;
9140;SDS011;46330;50.822;7.126;2022-09-13T06:28:52;7.22;;;4.32;;
9140;SDS011;46330;50.822;7.126;2022-09-13T06:31:22;6.88;;;4.65;;
9140;SDS011;46330;50.822;7.126;2022-09-13T06:33:54;10.10;;;5.15;;
9140;SDS011;46330;50.822;7.126;2022-09-13T06:36:23;7.22;;;4.28;;
9140;SDS011;46330;50.822;7.126;2022-09-13T06:38:51;10.45;;;4.70;;
9140;SDS011;46330;50.822;7.126;2022-09-13T06:41:22;7.55;;;4.50;;
9140;SDS011;46330;50.822;7.126;2022-09-13T06:43:53;7.53;;;4.78;;
9140;SDS011;46330;50.822;7.126;2022-09-13T06:46:22;5.72;;;3.67;;
9140;SDS011;46330;50.822;7.126;2022-09-13T06:48:51;7.55;;;3.78;;
9140;SDS011;46330;50.822;7.126;2022-09-13T06:51:20;6.50;;;3.88;;
9140;SDS011;46330;50.822;7.126;2022-09-13T06:53:49;6.30;;;3.90;;
9140;SDS011;46330;50.822;7.126;2022-09-13T06:56:19;5.25;;;3.70;;
9140;SDS011;46330;50.822;7.126;2022-09-13T06:58:50;7.15;;;4.47;;
9140;SDS011;46330;50.822;7.126;2022-09-13T07:01:21;10.07;;;4.65;;
9140;SDS011;46330;50.822;7.126;2022-09-13T07:03:51;8.20;;;4.53;;
9140;SDS011;46330;50.822;7.126;2022-09-13T07:06:22;8.60;;;4.55;;
9140;SDS011;46330;50.822;7.126;2022-09-13T07:08:52;8.00;;;4.20;;
9140;SDS011;46330;50.822;7.126;2022-09-13T07:11:23;6.13;;;3.63;;
9140;SDS011;46330;50.822;7.126;2022-09-13T07:13:53;8.73;;;4.18;;
9140;SDS011;46330;50.822;7.126;2022-09-13T07:16:22;6.45;;;3.85;;
9140;SDS011;46330;50.822;7.126;2022-09-13T07:18:52;8.68;;;3.75;;
9140;SDS011;46330;50.822;7.126;2022-09-13T07:21:21;6.75;;;4.05;;
9140;SDS011;46330;50.822;7.126;2022-09-13T07:23:49;7.47;;;3.55;;
9140;SDS011;46330;50.822;7.126;2022-09-13T07:26:18;5.43;;;3.70;;
9140;SDS011;46330;50.822;7.126;2022-09-13T07:28:48;6.38;;;3.08;;
9140;SDS011;46330;50.822;7.126;2022-09-13T07:31:18;4.75;;;3.40;;
9140;SDS011;46330;50.822;7.126;2022-09-13T07:33:51;5.57;;;3.50;;
9140;SDS011;46330;50.822;7.126;2022-09-13T07:36:21;5.55;;;3.13;;
9140;SDS011;46330;50.822;7.126;2022-09-13T07:38:50;7.65;;;3.60;;
9140;SDS011;46330;50.822;7.126;2022-09-13T07:41:18;6.70;;;3.30;;
9140;SDS011;46330;50.822;7.126;2022-09-13T07:43:48;8.35;;;3.85;;
9140;SDS011;46330;50.822;7.126;2022-09-13T07:46:17;7.18;;;4.18;;
9140;SDS011;46330;50.822;7.126;2022-09-13T07:48:47;9.20;;;3.85;;
9140;SDS011;46330;50.822;7.126;2022-09-13T07:51:16;6.57;;;3.22;;
9140;SDS011;46330;50.822;7.126;2022-09-13T07:53:46;7.38;;;3.70;;
9140;SDS011;46330;50.822;7.126;2022-09-13T07:56:22;7.40;;;3.90;;
9140;SDS011;46330;50.822;7.126;2022-09-13T07:58:53;7.20;;;3.53;;
9140;SDS011;46330;50.822;7.126;2022-09-13T08:01:22;5.47;;;3.67;;
9140;SDS011;46330;50.822;7.126;2022-09-13T08:03:51;5.35;;;3.40;;
9140;SDS011;46330;50.822;7.126;2022-09-13T08:06:20;6.60;;;3.50;;
9140;SDS011;46330;50.822;7.126;2022-09-13T08:08:48;6.70;;;3.03;;
9140;SDS011;46330;50.822;7.126;2022-09-13T08:11:17;6.18;;;3.30;;
9140;SDS011;46330;50.822;7.126;2022-09-13T08:13:47;6.15;;;3.00;;
9140;SDS011;46330;50.822;7.126;2022-09-13T08:16:18;7.03;;;3.30;;
9140;SDS011;46330;50.822;7.126;2022-09-13T08:18:48;6.20;;;3.40;;
9140;SDS011;46330;50.822;7.126;2022-09-13T08:21:17;4.35;;;3.10;;
9140;SDS011;46330;50.822;7.126;2022-09-13T08:23:45;6.25;;;2.70;;
9140;SDS011;46330;50.822;7.126;2022-09-13T08:26:13;7.78;;;3.00;;
9140;SDS011;46330;50.822;7.126;2022-09-13T08:28:41;6.35;;;3.25;;
9140;SDS011;46330;50.822;7.126;2022-09-13T08:31:10;8.18;;;2.97;;
9140;SDS011;46330;50.822;7.126;2022-09-13T08:33:42;4.50;;;2.95;;
9140;SDS011;46330;50.822;7.126;2022-09-13T08:36:13;9.95;;;3.00;;
9140;SDS011;46330;50.822;7.126;2022-09-13T08:38:45;7.78;;;2.58;;
9140;SDS011;46330;50.822;7.126;2022-09-13T08:41:21;6.15;;;2.92;;
9140;SDS011;46330;50.822;7.126;2022-09-13T08:44:05;6.22;;;2.47;;
9140;SDS011;46330;50.822;7.126;2022-09-13T08:46:38;5.00;;;2.20;;
9140;SDS011;46330;50.822;7.126;2022-09-13T08:49:11;6.45;;;2.40;;
9140;SDS011;46330;50.822;7.126;2022-09-13T08:51:45;6.60;;;2.10;;
9140;SDS011;46330;50.822;7.126;2022-09-13T08:54:15;5.13;;;2.60;;
9140;SDS011;46330;50.822;7.126;2022-09-13T08:56:48;5.22;;;2.55;;
9140;SDS011;46330;50.822;7.126;2022-09-13T08:59:28;5.55;;;2.63;;
9140;SDS011;46330;50.822;7.126;2022-09-13T09:02:09;5.82;;;2.50;;
9140;SDS011;46330;50.822;7.126;2022-09-13T09:04:55;4.03;;;2.55;;
9140;SDS011;46330;50.822;7.126;2022-09-13T09:07:30;3.92;;;1.90;;
9140;SDS011;46330;50.822;7.126;2022-09-13T09:10:02;5.55;;;2.17;;
9140;SDS011;46330;50.822;7.126;2022-09-13T09:12:35;5.28;;;2.30;;
9140;SDS011;46330;50.822;7.126;2022-09-13T09:15:12;7.07;;;2.40;;
9140;SDS011;46330;50.822;7.126;2022-09-13T09:17:45;6.35;;;2.50;;
9140;SDS011;46330;50.822;7.126;2022-09-13T09:20:29;4.32;;;2.50;;
9140;SDS011;46330;50.822;7.126;2022-09-13T09:23:01;5.78;;;2.30;;
9140;SDS011;46330;50.822;7.126;2022-09-13T09:25:32;3.78;;;2.20;;
9140;SDS011;46330;50.822;7.126;2022-09-13T09:28:05;4.95;;;2.20;;
9140;SDS011;46330;50.822;7.126;2022-09-13T09:30:39;3.42;;;2.10;;
9140;SDS011;46330;50.822;7.126;2022-09-13T09:33:17;4.75;;;2.20;;
9140;SDS011;46330;50.822;7.126;2022-09-13T09:36:08;12.10;;;2.22;;
9140;SDS011;46330;50.822;7.126;2022-09-13T09:38:42;4.32;;;2.00;;
9140;SDS011;46330;50.822;7.126;2022-09-13T09:41:12;2.90;;;2.00;;
9140;SDS011;46330;50.822;7.126;2022-09-13T09:43:49;10.80;;;2.78;;
9140;SDS011;46330;50.822;7.126;2022-09-13T09:46:23;4.78;;;2.60;;
9140;SDS011;46330;50.822;7.126;2022-09-13T09:48:55;5.00;;;2.00;;
9140;SDS011;46330;50.822;7.126;2022-09-13T09:51:30;3.95;;;1.85;;
9140;SDS011;46330;50.822;7.126;2022-09-13T09:54:01;5.47;;;2.35;;
9140;SDS011;46330;50.822;7.126;2022-09-13T09:56:32;5.15;;;2.00;;
9140;SDS011;46330;50.822;7.126;2022-09-13T09:59:01;3.95;;;1.63;;
9140;SDS011;46330;50.822;7.126;2022-09-13T10:01:30;5.25;;;1.50;;
9140;SDS011;46330;50.822;7.126;2022-09-13T10:04:04;6.57;;;1.80;;
9140;SDS011;46330;50.822;7.126;2022-09-13T10:06:36;4.18;;;1.48;;
9140;SDS011;46330;50.822;7.126;2022-09-13T10:09:06;5.63;;;1.60;;
9140;SDS011;46330;50.822;7.126;2022-09-13T10:11:43;2.40;;;1.40;;
9140;SDS011;46330;50.822;7.126;2022-09-13T10:17:14;3.95;;;1.50;;
9140;SDS011;46330;50.822;7.126;2022-09-13T10:19:50;3.92;;;1.30;;
9140;SDS011;46330;50.822;7.126;2022-09-13T10:22:21;3.42;;;1.33;;
9140;SDS011;46330;50.822;7.126;2022-09-13T10:24:50;7.03;;;1.70;;
9140;SDS011;46330;50.822;7.126;2022-09-13T10:27:19;2.95;;;1.60;;
9140;SDS011;46330;50.822;7.126;2022-09-13T10:29:50;5.28;;;1.70;;
9140;SDS011;46330;50.822;7.126;2022-09-13T10:32:22;4.20;;;1.70;;
9140;SDS011;46330;50.822;7.126;2022-09-13T10:34:50;4.57;;;1.70;;
9140;SDS011;46330;50.822;7.126;2022-09-13T10:37:20;2.92;;;1.90;;
9140;SDS011;46330;50.822;7.126;2022-09-13T10:39:58;5.82;;;2.50;;
9140;SDS011;46330;50.822;7.126;2022-09-13T10:42:31;8.10;;;3.58;;
9140;SDS011;46330;50.822;7.126;2022-09-13T10:44:59;7.50;;;3.60;;
9140;SDS011;46330;50.822;7.126;2022-09-13T10:47:30;10.85;;;3.28;;
9140;SDS011;46330;50.822;7.126;2022-09-13T10:50:11;7.40;;;2.60;;
9140;SDS011;46330;50.822;7.126;2022-09-13T10:52:46;9.77;;;2.65;;
9140;SDS011;46330;50.822;7.126;2022-09-13T10:55:23;5.72;;;2.58;;
9140;SDS011;46330;50.822;7.126;2022-09-13T10:58:13;7.45;;;2.45;;
9140;SDS011;46330;50.822;7.126;2022-09-13T11:00:46;10.45;;;2.88;;
9140;SDS011;46330;50.822;7.126;2022-09-13T11:03:31;7.25;;;3.00;;
9140;SDS011;46330;50.822;7.126;2022-09-13T11:06:10;7.43;;;3.35;;
9140;SDS011;46330;50.822;7.126;2022-09-13T11:08:48;5.80;;;3.20;;
9140;SDS011;46330;50.822;7.126;2022-09-13T11:11:23;6.30;;;3.08;;
9140;SDS011;46330;50.822;7.126;2022-09-13T11:14:01;9.15;;;3.35;;
9140;SDS011;46330;50.822;7.126;2022-09-13T11:16:45;6.53;;;3.05;;
9140;SDS011;46330;50.822;7.126;2022-09-13T11:22:43;4.68;;;2.20;;
9140;SDS011;46330;50.822;7.126;2022-09-13T11:25:30;4.32;;;2.13;;
9140;SDS011;46330;50.822;7.126;2022-09-13T11:28:12;4.90;;;2.30;;
9140;SDS011;46330;50.822;7.126;2022-09-13T11:30:50;5.07;;;2.20;;
9140;SDS011;46330;50.822;7.126;2022-09-13T11:33:33;6.50;;;3.20;;
9140;SDS011;46330;50.822;7.126;2022-09-13T11:39:11;5.00;;;2.50;;
9140;SDS011;46330;50.822;7.126;2022-09-13T11:41:49;6.78;;;2.40;;
9140;SDS011;46330;50.822;7.126;2022-09-13T11:44:30;6.18;;;2.70;;
9140;SDS011;46330;50.822;7.126;2022-09-13T11:47:12;3.85;;;2.50;;
9140;SDS011;46330;50.822;7.126;2022-09-13T11:52:52;5.30;;;2.03;;
9140;SDS011;46330;50.822;7.126;2022-09-13T11:55:29;4.03;;;2.00;;
9140;SDS011;46330;50.822;7.126;2022-09-13T11:58:02;6.60;;;2.22;;
9140;SDS011;46330;50.822;7.126;2022-09-13T12:00:33;12.95;;;2.72;;
9140;SDS011;46330;50.822;7.126;2022-09-13T12:03:10;5.20;;;2.17;;
9140;SDS011;46330;50.822;7.126;2022-09-13T12:05:44;5.25;;;2.10;;
9140;SDS011;46330;50.822;7.126;2022-09-13T12:08:16;6.07;;;2.30;;
9140;SDS011;46330;50.822;7.126;2022-09-13T12:10:47;7.45;;;2.20;;
9140;SDS011;46330;50.822;7.126;2022-09-13T12:13:20;8.05;;;2.28;;
9140;SDS011;46330;50.822;7.126;2022-09-13T12:15:51;3.78;;;1.92;;
9140;SDS011;46330;50.822;7.126;2022-09-13T12:18:22;4.75;;;1.67;;
9140;SDS011;46330;50.822;7.126;2022-09-13T12:20:53;5.50;;;1.60;;
9140;SDS011;46330;50.822;7.126;2022-09-13T12:23:23;7.28;;;1.80;;
9140;SDS011;46330;50.822;7.126;2022-09-13T12:25:57;4.28;;;1.90;;
9140;SDS011;46330;50.822;7.126;2022-09-13T12:28:30;7.60;;;2.00;;
9140;SDS011;46330;50.822;7.126;2022-09-13T12:31:04;3.70;;;1.70;;
9140;SDS011;46330;50.822;7.126;2022-09-13T12:33:37;6.80;;;1.80;;
9140;SDS011;46330;50.822;7.126;2022-09-13T12:36:15;4.18;;;1.80;;
9140;SDS011;46330;50.822;7.126;2022-09-13T12:39:07;4.15;;;1.98;;
9140;SDS011;46330;50.822;7.126;2022-09-13T12:42:05;5.78;;;2.10;;
9140;SDS011;46330;50.822;7.126;2022-09-13T12:44:54;2.88;;;1.83;;
9140;SDS011;46330;50.822;7.126;2022-09-13T12:47:41;5.53;;;2.00;;
9140;SDS011;46330;50.822;7.126;2022-09-13T12:56:28;3.55;;;1.80;;
9140;SDS011;46330;50.822;7.126;2022-09-13T13:02:18;5.28;;;1.75;;
9140;SDS011;46330;50.822;7.126;2022-09-13T13:04:52;5.20;;;1.63;;
9140;SDS011;46330;50.822;7.126;2022-09-13T13:07:24;3.75;;;1.80;;
9140;SDS011;46330;50.822;7.126;2022-09-13T13:09:55;2.13;;;1.05;;
9140;SDS011;46330;50.822;7.126;2022-09-13T13:12:25;4.20;;;1.40;;
9140;SDS011;46330;50.822;7.126;2022-09-13T13:14:56;5.40;;;1.20;;
9140;SDS011;46330;50.822;7.126;2022-09-13T13:17:44;3.95;;;1.30;;
9140;SDS011;46330;50.822;7.126;2022-09-13T13:23:29;4.75;;;1.20;;
9140;SDS011;46330;50.822;7.126;2022-09-13T13:26:04;3.90;;;1.38;;
9140;SDS011;46330;50.822;7.126;2022-09-13T13:31:45;3.03;;;1.20;;
9140;SDS011;46330;50.822;7.126;2022-09-13T13:34:33;2.78;;;1.15;;
9140;SDS011;46330;50.822;7.126;2022-09-13T13:37:27;3.00;;;1.35;;
9140;SDS011;46330;50.822;7.126;2022-09-13T13:40:12;4.95;;;1.20;;
9140;SDS011;46330;50.822;7.126;2022-09-13T13:42:48;6.93;;;1.52;;
9140;SDS011;46330;50.822;7.126;2022-09-13T13:45:18;5.32;;;1.45;;
9140;SDS011;46330;50.822;7.126;2022-09-13T13:47:54;2.92;;;1.27;;
9140;SDS011;46330;50.822;7.126;2022-09-13T13:53:45;2.53;;;1.30;;
9140;SDS011;46330;50.822;7.126;2022-09-13T13:56:19;6.95;;;1.42;;
9140;SDS011;46330;50.822;7.126;2022-09-13T13:58:53;4.40;;;1.40;;
9140;SDS011;46330;50.822;7.126;2022-09-13T14:01:24;1.95;;;1.10;;
9140;SDS011;46330;50.822;7.126;2022-09-13T14:04:04;6.30;;;1.20;;
9140;SDS011;46330;50.822;7.126;2022-09-13T14:06:57;4.25;;;1.48;;
9140;SDS011;46330;50.822;7.126;2022-09-13T14:09:46;5.70;;;1.40;;
9140;SDS011;46330;50.822;7.126;2022-09-13T14:12:26;8.23;;;1.50;;
9140;SDS011;46330;50.822;7.126;2022-09-13T14:15:09;5.05;;;1.40;;
9140;SDS011;46330;50.822;7.126;2022-09-13T14:17:52;7.53;;;1.38;;
9140;SDS011;46330;50.822;7.126;2022-09-13T14:20:38;5.43;;;1.40;;
9140;SDS011;46330;50.822;7.126;2022-09-13T14:23:24;3.10;;;1.40;;
9140;SDS011;46330;50.822;7.126;2022-09-13T14:25:53;5.95;;;1.48;;
9140;SDS011;46330;50.822;7.126;2022-09-13T14:28:23;9.18;;;2.15;;
9140;SDS011;46330;50.822;7.126;2022-09-13T14:30:52;6.70;;;2.17;;
9140;SDS011;46330;50.822;7.126;2022-09-13T14:33:23;4.97;;;1.30;;
9140;SDS011;46330;50.822;7.126;2022-09-13T14:35:58;6.30;;;1.45;;
9140;SDS011;46330;50.822;7.126;2022-09-13T14:38:29;5.25;;;1.60;;
9140;SDS011;46330;50.822;7.126;2022-09-13T14:41:02;6.68;;;1.48;;
9140;SDS011;46330;50.822;7.126;2022-09-13T14:43:39;4.65;;;1.35;;
9140;SDS011;46330;50.822;7.126;2022-09-13T14:46:08;3.75;;;1.75;;
9140;SDS011;46330;50.822;7.126;2022-09-13T14:48:41;4.57;;;2.03;;
9140;SDS011;46330;50.822;7.126;2022-09-13T14:51:18;3.63;;;2.58;;
9140;SDS011;46330;50.822;7.126;2022-09-13T14:53:50;4.13;;;1.50;;
9140;SDS011;46330;50.822;7.126;2022-09-13T14:56:25;2.53;;;1.30;;
9140;SDS011;46330;50.822;7.126;2022-09-13T14:58:57;8.10;;;1.60;;
9140;SDS011;46330;50.822;7.126;2022-09-13T15:01:27;9.63;;;1.55;;
9140;SDS011;46330;50.822;7.126;2022-09-13T15:03:58;6.00;;;1.40;;
9140;SDS011;46330;50.822;7.126;2022-09-13T15:06:28;5.55;;;1.50;;
9140;SDS011;46330;50.822;7.126;2022-09-13T15:08:59;7.03;;;1.65;;
9140;SDS011;46330;50.822;7.126;2022-09-13T15:11:54;2.20;;;1.30;;
9140;SDS011;46330;50.822;7.126;2022-09-13T15:14:24;5.03;;;1.40;;
9140;SDS011;46330;50.822;7.126;2022-09-13T15:16:56;4.13;;;1.30;;
9140;SDS011;46330;50.822;7.126;2022-09-13T15:19:27;9.00;;;1.45;;
9140;SDS011;46330;50.822;7.126;2022-09-13T15:22:01;6.07;;;1.52;;
9140;SDS011;46330;50.822;7.126;2022-09-13T15:24:32;3.38;;;1.17;;
9140;SDS011;46330;50.822;7.126;2022-09-13T15:27:01;2.15;;;1.20;;
9140;SDS011;46330;50.822;7.126;2022-09-13T15:29:31;5.47;;;1.70;;
9140;SDS011;46330;50.822;7.126;2022-09-13T15:32:00;2.58;;;1.30;;
9140;SDS011;46330;50.822;7.126;2022-09-13T15:34:29;4.13;;;1.38;;
9140;SDS011;46330;50.822;7.126;2022-09-13T15:37:09;6.20;;;2.10;;
9140;SDS011;46330;50.822;7.126;2022-09-13T15:39:43;6.88;;;1.40;;
9140;SDS011;46330;50.822;7.126;2022-09-13T15:42:14;6.30;;;1.40;;
9140;SDS011;46330;50.822;7.126;2022-09-13T15:44:42;1.80;;;0.88;;
9140;SDS011;46330;50.822;7.126;2022-09-13T15:47:14;3.30;;;1.30;;
9140;SDS011;46330;50.822;7.126;2022-09-13T15:49:46;3.08;;;1.48;;
9140;SDS011;46330;50.822;7.126;2022-09-13T15:52:16;2.08;;;1.58;;
9140;SDS011;46330;50.822;7.126;2022-09-13T15:54:47;4.45;;;1.60;;
9140;SDS011;46330;50.822;7.126;2022-09-13T15:57:16;4.05;;;1.92;;
9140;SDS011;46330;50.822;7.126;2022-09-13T15:59:46;5.57;;;1.50;;
9140;SDS011;46330;50.822;7.126;2022-09-13T16:02:17;5.78;;;1.83;;
9140;SDS011;46330;50.822;7.126;2022-09-13T16:04:46;4.20;;;1.70;;
9140;SDS011;46330;50.822;7.126;2022-09-13T16:07:15;5.53;;;1.60;;
9140;SDS011;46330;50.822;7.126;2022-09-13T16:09:43;5.85;;;1.60;;
9140;SDS011;46330;50.822;7.126;2022-09-13T16:12:13;8.70;;;1.65;;
9140;SDS011;46330;50.822;7.126;2022-09-13T16:14:41;9.25;;;1.75;;